Time;durP1;ratioP1;P1;durP2;ratioP2;P2;SDS_P1;SDS_P2;PMS_P1;PMS_P2;Temp;Humidity;BMP_temperature;BMP_pressure;BME280_temperature;BME280_humidity;BME280_pressure;Samples;Min_cycle;Max_cycle;Signal;HPM_P1;HPM_P2
2023/04/22 00:00:17;;;;;;;;;;;9.00;99.90;;;;;;5038979;28;20433;-57
2023/04/22 00:02:44;;;;;;;;;;;8.90;99.90;;;;;;5042772;28;20000;-58
2023/04/22 00:05:12;;;;;;;;;;;8.90;99.90;;;;;;5041013;28;19996;-60
2023/04/22 00:07:38;;;;;;;;;;;9.00;99.90;;;;;;5034729;28;19944;-58
2023/04/22 00:10:04;;;;;;;;;;;9.00;99.90;;;;;;5042757;28;20402;-58
2023/04/22 00:12:30;;;;;;;;;;;9.00;99.90;;;;;;5044401;28;19913;-58
2023/04/22 00:14:56;;;;;;;;;;;9.00;99.90;;;;;;5038183;28;19913;-60
2023/04/22 00:17:21;;;;;;;;;;;8.90;99.90;;;;;;5036489;28;20020;-56
2023/04/22 00:19:47;;;;;;;;;;;8.90;99.90;;;;;;5035248;28;20285;-60
2023/04/22 00:22:13;;;;;;;;;;;8.90;99.90;;;;;;5040576;28;19913;-56
2023/04/22 00:24:38;;;;;;;;;;;9.00;99.90;;;;;;5038747;28;19921;-59
2023/04/22 00:27:04;;;;;;;;;;;9.00;99.90;;;;;;5040533;28;20016;-58
2023/04/22 00:29:29;;;;;;;;;;;8.90;99.90;;;;;;5038340;28;20011;-56
2023/04/22 00:31:55;;;;;;;;;;;9.00;99.90;;;;;;5036463;28;19912;-59
2023/04/22 00:34:20;;;;;;;;;;;9.00;99.90;;;;;;5035888;28;19920;-58
2023/04/22 00:36:46;;;;;;;;;;;9.00;99.90;;;;;;5032599;28;20386;-57
2023/04/22 00:39:11;;;;;;;;;;;9.00;99.90;;;;;;5035302;28;19917;-60
2023/04/22 00:41:40;;;;;;;;;;;9.00;99.90;;;;;;5047314;28;19913;-59
2023/04/22 00:44:08;;;;;;;;;;;9.00;99.90;;;;;;5038280;28;20374;-58
2023/04/22 00:46:34;;;;;;;;;;;9.00;99.90;;;;;;5047550;28;20001;-58
2023/04/22 00:49:00;;;;;;;;;;;9.00;99.90;;;;;;5044480;28;19979;-59
2023/04/22 00:51:26;;;;;;;;;;;8.90;99.90;;;;;;5041172;28;20012;-57
2023/04/22 00:53:52;;;;;;;;;;;8.90;99.90;;;;;;5039140;28;19920;-58
2023/04/22 00:56:18;;;;;;;;;;;8.90;99.90;;;;;;5034595;28;19913;-57
2023/04/22 00:58:44;;;;;;;;;;;9.00;99.90;;;;;;5024868;28;19920;-60
2023/04/22 01:01:09;;;;;;;;;;;9.00;99.90;;;;;;5037387;28;19913;-60
2023/04/22 01:03:37;;;;;;;;;;;9.00;99.90;;;;;;5037785;28;19967;-63
2023/04/22 01:06:02;;;;;;;;;;;9.00;99.90;;;;;;5037249;28;20008;-58
2023/04/22 01:08:31;;;;;;;;;;;9.10;99.90;;;;;;5028653;28;19996;-58
2023/04/22 01:10:56;;;;;;;;;;;9.10;99.90;;;;;;5033597;28;19913;-61
2023/04/22 01:13:23;;;;;;;;;;;9.10;99.90;;;;;;5034441;28;19923;-57
2023/04/22 01:15:49;;;;;;;;;;;9.10;99.90;;;;;;5038741;28;20397;-60
2023/04/22 01:18:14;;;;;;;;;;;9.10;99.90;;;;;;5033609;28;19921;-58
2023/04/22 01:20:40;;;;;;;;;;;9.10;99.90;;;;;;5052709;28;19917;-59
2023/04/22 01:23:08;;;;;;;;;;;9.10;99.90;;;;;;5035019;28;20272;-60
2023/04/22 01:25:34;;;;;;;;;;;9.10;99.90;;;;;;5047334;28;19995;-56
2023/04/22 01:28:00;;;;;;;;;;;9.10;99.90;;;;;;5040595;28;19921;-57
2023/04/22 01:30:26;;;;;;;;;;;9.10;99.90;;;;;;5040191;28;19974;-57
2023/04/22 01:32:51;;;;;;;;;;;9.10;99.90;;;;;;5033401;28;20324;-58
2023/04/22 01:35:17;;;;;;;;;;;9.10;99.90;;;;;;5035054;28;19916;-60
2023/04/22 01:37:43;;;;;;;;;;;9.10;99.90;;;;;;5037351;28;20443;-56
2023/04/22 01:40:09;;;;;;;;;;;9.20;99.90;;;;;;5032901;28;19925;-56
2023/04/22 01:42:35;;;;;;;;;;;9.10;99.90;;;;;;5035834;28;20127;-59
2023/04/22 01:45:00;;;;;;;;;;;9.20;99.90;;;;;;5043798;28;19924;-60
2023/04/22 01:47:26;;;;;;;;;;;9.20;99.90;;;;;;5039932;28;19920;-59
2023/04/22 01:49:52;;;;;;;;;;;9.30;99.90;;;;;;5035571;28;19960;-57
2023/04/22 01:52:17;;;;;;;;;;;9.30;99.90;;;;;;5041034;28;19913;-58
2023/04/22 01:54:42;;;;;;;;;;;9.30;99.90;;;;;;5034772;28;19996;-58
2023/04/22 01:57:10;;;;;;;;;;;9.30;99.90;;;;;;5041167;28;19987;-59
2023/04/22 01:59:35;;;;;;;;;;;9.30;99.90;;;;;;5035426;28;20428;-56
2023/04/22 02:02:01;;;;;;;;;;;9.30;99.90;;;;;;5031967;28;20004;-59
2023/04/22 02:04:26;;;;;;;;;;;9.30;99.90;;;;;;5031873;28;19921;-59
2023/04/22 02:06:52;;;;;;;;;;;9.30;99.90;;;;;;5033015;28;19916;-56
2023/04/22 02:09:17;;;;;;;;;;;9.40;99.90;;;;;;5034289;28;19913;-56
2023/04/22 02:11:43;;;;;;;;;;;9.40;99.90;;;;;;5032595;28;19920;-59
2023/04/22 02:14:08;;;;;;;;;;;9.40;99.90;;;;;;5037939;28;19917;-59
2023/04/22 02:16:34;;;;;;;;;;;9.40;99.90;;;;;;5043049;28;19995;-59
2023/04/22 02:18:59;;;;;;;;;;;9.50;99.90;;;;;;5035087;28;19909;-59
2023/04/22 02:21:27;;;;;;;;;;;9.50;99.90;;;;;;5038401;28;19924;-58
2023/04/22 02:23:52;;;;;;;;;;;9.40;99.90;;;;;;5040605;28;19932;-56
2023/04/22 02:26:18;;;;;;;;;;;9.40;99.90;;;;;;5040396;28;19921;-59
2023/04/22 02:28:43;;;;;;;;;;;9.40;99.90;;;;;;5036031;28;19917;-57
2023/04/22 02:31:09;;;;;;;;;;;9.30;99.90;;;;;;5036853;28;19932;-59
2023/04/22 02:33:35;;;;;;;;;;;9.30;99.90;;;;;;5037401;28;20370;-59
2023/04/22 02:36:00;;;;;;;;;;;9.30;99.90;;;;;;5040300;28;19924;-58
2023/04/22 02:38:26;;;;;;;;;;;9.30;99.90;;;;;;5034747;28;19913;-61
2023/04/22 02:40:51;;;;;;;;;;;9.30;99.90;;;;;;5040789;28;20450;-58
2023/04/22 02:43:16;;;;;;;;;;;9.30;99.90;;;;;;5039163;28;20299;-57
2023/04/22 02:45:42;;;;;;;;;;;9.30;99.90;;;;;;5037945;28;19913;-57
2023/04/22 02:48:07;;;;;;;;;;;9.30;99.90;;;;;;5032307;28;19913;-60
2023/04/22 02:50:33;;;;;;;;;;;9.40;99.90;;;;;;5038093;28;19996;-60
2023/04/22 02:52:58;;;;;;;;;;;9.40;99.90;;;;;;5034247;28;19953;-59
2023/04/22 02:55:24;;;;;;;;;;;9.50;99.90;;;;;;5043186;28;19962;-58
2023/04/22 02:57:49;;;;;;;;;;;9.50;99.90;;;;;;5037917;28;19909;-59
2023/04/22 03:00:15;;;;;;;;;;;9.60;99.90;;;;;;5036996;28;19952;-57
2023/04/22 03:02:40;;;;;;;;;;;9.60;99.90;;;;;;5033094;28;20313;-58
2023/04/22 03:05:06;;;;;;;;;;;9.60;99.90;;;;;;5035945;28;20306;-56
2023/04/22 03:07:31;;;;;;;;;;;9.60;99.90;;;;;;5037478;28;19917;-59
2023/04/22 03:09:57;;;;;;;;;;;9.60;99.90;;;;;;5036087;28;19917;-57
2023/04/22 03:12:23;;;;;;;;;;;9.60;99.90;;;;;;5034352;28;20455;-59
2023/04/22 03:14:49;;;;;;;;;;;9.60;99.90;;;;;;5039510;28;19920;-60
2023/04/22 03:17:14;;;;;;;;;;;9.60;99.90;;;;;;5033295;28;20014;-59
2023/04/22 03:19:40;;;;;;;;;;;9.60;99.90;;;;;;5035118;28;19917;-57
2023/04/22 03:22:05;;;;;;;;;;;9.60;99.90;;;;;;5039223;28;19979;-58
2023/04/22 03:24:30;;;;;;;;;;;9.60;99.90;;;;;;5035141;28;19924;-60
2023/04/22 03:26:56;;;;;;;;;;;9.60;99.90;;;;;;5041018;28;19921;-56
2023/04/22 03:29:21;;;;;;;;;;;9.60;99.90;;;;;;5041030;28;19916;-57
2023/04/22 03:31:47;;;;;;;;;;;9.70;99.90;;;;;;5034710;28;19919;-60
2023/04/22 03:34:12;;;;;;;;;;;9.70;99.90;;;;;;5036999;28;19913;-57
2023/04/22 03:36:38;;;;;;;;;;;9.70;99.90;;;;;;5048039;28;19913;-57
2023/04/22 03:39:04;;;;;;;;;;;9.80;99.90;;;;;;5037658;28;19944;-57
2023/04/22 03:41:29;;;;;;;;;;;9.90;99.90;;;;;;5042395;28;19971;-59
2023/04/22 03:43:54;;;;;;;;;;;9.90;99.90;;;;;;5043188;28;19940;-59
2023/04/22 03:46:20;;;;;;;;;;;9.90;99.90;;;;;;5039795;28;20035;-58
2023/04/22 03:48:45;;;;;;;;;;;10.00;99.90;;;;;;5042474;28;19921;-58
2023/04/22 03:51:11;;;;;;;;;;;10.00;99.90;;;;;;5042470;28;19919;-58
2023/04/22 03:53:36;;;;;;;;;;;10.00;99.90;;;;;;5041744;28;19919;-56
2023/04/22 03:56:02;;;;;;;;;;;10.10;99.90;;;;;;5044611;28;19913;-57
2023/04/22 03:58:27;;;;;;;;;;;10.10;99.90;;;;;;5035758;28;20437;-58
2023/04/22 04:00:53;;;;;;;;;;;10.20;99.90;;;;;;5039743;28;20664;-59
2023/04/22 04:03:18;;;;;;;;;;;10.20;99.90;;;;;;5036034;28;20422;-57
2023/04/22 04:05:43;;;;;;;;;;;10.20;99.90;;;;;;5040252;28;19917;-54
2023/04/22 04:08:09;;;;;;;;;;;10.20;99.90;;;;;;5035145;28;20409;-62
2023/04/22 04:10:35;;;;;;;;;;;10.20;99.90;;;;;;5044877;28;19931;-54
2023/04/22 04:13:01;;;;;;;;;;;10.20;99.90;;;;;;5040802;28;20383;-58
2023/04/22 04:15:26;;;;;;;;;;;10.20;99.90;;;;;;5045201;28;20331;-59
2023/04/22 04:17:52;;;;;;;;;;;10.20;99.90;;;;;;5038549;28;19916;-62
2023/04/22 04:20:17;;;;;;;;;;;10.20;99.90;;;;;;5038546;28;20295;-58
2023/04/22 04:22:43;;;;;;;;;;;10.30;99.90;;;;;;5034514;28;19913;-58
2023/04/22 04:25:09;;;;;;;;;;;10.30;99.90;;;;;;5043302;28;19982;-58
2023/04/22 04:27:35;;;;;;;;;;;10.30;99.90;;;;;;5039489;28;19960;-59
2023/04/22 04:30:03;;;;;;;;;;;10.30;99.90;;;;;;5033680;28;19917;-57
2023/04/22 04:32:28;;;;;;;;;;;10.30;99.90;;;;;;5040028;28;20363;-58
2023/04/22 04:34:54;;;;;;;;;;;10.40;99.90;;;;;;5039793;28;19923;-54
2023/04/22 04:37:21;;;;;;;;;;;10.30;99.90;;;;;;5036636;28;19981;-55
2023/04/22 04:39:47;;;;;;;;;;;10.40;99.90;;;;;;5036493;28;19927;-57
2023/04/22 04:42:13;;;;;;;;;;;10.30;99.90;;;;;;5039841;28;19917;-52
2023/04/22 04:44:38;;;;;;;;;;;10.30;99.90;;;;;;5043815;28;19917;-59
2023/04/22 04:47:04;;;;;;;;;;;10.40;99.90;;;;;;5034682;28;19986;-55
2023/04/22 04:49:29;;;;;;;;;;;10.30;99.90;;;;;;5043147;28;19912;-59
2023/04/22 04:51:55;;;;;;;;;;;10.30;99.90;;;;;;5034883;28;19967;-56
2023/04/22 04:54:20;;;;;;;;;;;10.40;99.90;;;;;;5042127;28;19956;-60
2023/04/22 04:56:46;;;;;;;;;;;10.40;99.90;;;;;;5037615;28;19920;-59
2023/04/22 04:59:11;;;;;;;;;;;10.40;99.90;;;;;;5038404;28;19913;-57
2023/04/22 05:01:37;;;;;;;;;;;10.30;99.90;;;;;;5042689;28;19936;-60
2023/04/22 05:04:02;;;;;;;;;;;10.40;99.90;;;;;;5040752;28;19956;-59
2023/04/22 05:06:28;;;;;;;;;;;10.40;99.90;;;;;;5032797;28;19913;-57
2023/04/22 05:08:53;;;;;;;;;;;10.30;99.90;;;;;;5044136;28;20396;-61
2023/04/22 05:11:19;;;;;;;;;;;10.40;99.90;;;;;;5040228;28;19916;-60
2023/04/22 05:13:44;;;;;;;;;;;10.40;99.90;;;;;;5034874;28;20291;-60
2023/04/22 05:16:10;;;;;;;;;;;10.40;99.90;;;;;;5035012;28;20061;-60
2023/04/22 05:18:35;;;;;;;;;;;10.40;99.90;;;;;;5035665;28;20291;-60
2023/04/22 05:21:03;;;;;;;;;;;10.40;99.90;;;;;;5037081;28;19913;-56
2023/04/22 05:23:29;;;;;;;;;;;10.40;99.90;;;;;;5038502;28;19913;-59
2023/04/22 05:25:55;;;;;;;;;;;10.40;99.90;;;;;;5037172;28;19956;-57
2023/04/22 05:28:20;;;;;;;;;;;10.40;99.90;;;;;;5040272;28;20026;-57
2023/04/22 05:30:46;;;;;;;;;;;10.50;99.90;;;;;;5036459;28;19920;-59
2023/04/22 05:33:11;;;;;;;;;;;10.50;99.90;;;;;;5036937;28;19920;-58
2023/04/22 05:35:37;;;;;;;;;;;10.50;99.90;;;;;;5040916;28;19919;-59
2023/04/22 05:38:02;;;;;;;;;;;10.60;99.90;;;;;;5034790;28;20272;-60
2023/04/22 05:40:27;;;;;;;;;;;10.70;99.90;;;;;;5043653;28;19913;-60
2023/04/22 05:42:53;;;;;;;;;;;10.80;99.90;;;;;;5040653;28;20386;-61
2023/04/22 05:45:18;;;;;;;;;;;10.90;99.90;;;;;;5039393;28;20291;-60
2023/04/22 05:47:44;;;;;;;;;;;10.90;99.90;;;;;;5033531;28;19921;-58
2023/04/22 05:50:09;;;;;;;;;;;11.00;99.90;;;;;;5039790;28;19913;-61
2023/04/22 05:52:35;;;;;;;;;;;11.00;99.90;;;;;;5037117;28;19917;-58
2023/04/22 05:55:00;;;;;;;;;;;11.00;99.90;;;;;;5038146;28;20597;-58
2023/04/22 05:57:26;;;;;;;;;;;11.10;99.90;;;;;;5036925;28;20298;-62
2023/04/22 05:59:51;;;;;;;;;;;11.10;99.90;;;;;;5036322;28;19931;-61
2023/04/22 06:02:17;;;;;;;;;;;11.20;99.90;;;;;;5033958;28;20341;-61
2023/04/22 06:04:42;;;;;;;;;;;11.10;99.90;;;;;;5043498;28;19921;-59
2023/04/22 06:07:09;;;;;;;;;;;11.20;99.90;;;;;;5036057;28;22277;-60
2023/04/22 06:09:35;;;;;;;;;;;11.20;99.90;;;;;;5033363;28;19913;-61
2023/04/22 06:12:01;;;;;;;;;;;11.30;99.90;;;;;;5035655;28;20000;-60
2023/04/22 06:14:26;;;;;;;;;;;11.30;99.90;;;;;;5037804;28;19917;-60
2023/04/22 06:16:52;;;;;;;;;;;11.30;99.90;;;;;;5037900;28;20451;-61
2023/04/22 06:19:18;;;;;;;;;;;11.40;99.90;;;;;;5035132;28;19919;-58
2023/04/22 06:21:43;;;;;;;;;;;11.30;99.90;;;;;;5036041;28;19913;-62
2023/04/22 06:24:09;;;;;;;;;;;11.40;99.90;;;;;;5034484;28;19925;-62
2023/04/22 06:26:35;;;;;;;;;;;11.40;99.90;;;;;;5032554;28;19920;-61
2023/04/22 06:29:04;;;;;;;;;;;11.40;99.90;;;;;;5031439;28;19975;-60
2023/04/22 06:31:30;;;;;;;;;;;11.50;99.90;;;;;;5033691;28;20419;-62
2023/04/22 06:33:55;;;;;;;;;;;11.60;99.90;;;;;;5037768;28;19953;-57
2023/04/22 06:36:21;;;;;;;;;;;11.70;99.90;;;;;;5034478;28;20518;-62
2023/04/22 06:38:46;;;;;;;;;;;11.80;99.90;;;;;;5038195;28;19921;-61
2023/04/22 06:41:12;;;;;;;;;;;11.90;99.90;;;;;;5039543;28;19913;-62
2023/04/22 06:43:38;;;;;;;;;;;12.10;99.90;;;;;;5036104;28;19971;-60
2023/04/22 06:46:03;;;;;;;;;;;12.20;99.90;;;;;;5035089;28;19948;-61
2023/04/22 06:48:29;;;;;;;;;;;12.40;99.90;;;;;;5034506;28;19917;-58
2023/04/22 06:50:54;;;;;;;;;;;12.50;99.90;;;;;;5035822;28;19964;-62
2023/04/22 06:53:19;;;;;;;;;;;12.60;99.90;;;;;;5034692;28;19921;-57
2023/04/22 06:55:45;;;;;;;;;;;12.70;99.90;;;;;;5039903;28;19913;-61
2023/04/22 06:58:11;;;;;;;;;;;12.80;99.90;;;;;;5037890;28;19920;-64
2023/04/22 07:00:36;;;;;;;;;;;12.80;99.90;;;;;;5038606;28;19913;-61
2023/04/22 07:03:01;;;;;;;;;;;12.80;99.90;;;;;;5034759;28;19924;-59
2023/04/22 07:05:27;;;;;;;;;;;12.80;99.90;;;;;;5038885;28;20361;-63
2023/04/22 07:07:52;;;;;;;;;;;12.90;99.90;;;;;;5043967;28;19923;-59
2023/04/22 07:10:18;;;;;;;;;;;12.90;99.90;;;;;;5041367;28;19914;-60
2023/04/22 07:12:44;;;;;;;;;;;13.00;99.90;;;;;;5040032;28;21903;-63
2023/04/22 07:15:10;;;;;;;;;;;13.00;99.90;;;;;;5038692;28;19921;-61
2023/04/22 07:17:35;;;;;;;;;;;13.00;99.90;;;;;;5039425;28;19916;-62
2023/04/22 07:20:01;;;;;;;;;;;13.00;99.90;;;;;;5034082;28;19921;-60
2023/04/22 07:22:26;;;;;;;;;;;13.00;99.90;;;;;;5030515;28;19913;-61
2023/04/22 07:24:51;;;;;;;;;;;13.10;99.90;;;;;;5035344;28;20665;-59
2023/04/22 07:27:17;;;;;;;;;;;13.10;99.90;;;;;;5033394;28;19913;-61
2023/04/22 07:29:42;;;;;;;;;;;13.20;99.90;;;;;;5034192;28;19916;-62
2023/04/22 07:32:08;;;;;;;;;;;13.30;99.90;;;;;;5040690;28;19924;-59
2023/04/22 07:34:33;;;;;;;;;;;13.40;99.90;;;;;;5045272;28;19913;-60
2023/04/22 07:36:59;;;;;;;;;;;13.50;99.90;;;;;;5043104;28;19978;-59
2023/04/22 07:39:25;;;;;;;;;;;13.60;99.90;;;;;;5043153;28;19913;-60
2023/04/22 07:41:50;;;;;;;;;;;13.70;99.90;;;;;;5034000;28;20027;-58
2023/04/22 07:44:20;;;;;;;;;;;13.80;99.90;;;;;;5036684;28;19917;-60
2023/04/22 07:46:49;;;;;;;;;;;14.00;99.90;;;;;;5032868;28;19966;-63
2023/04/22 07:49:16;;;;;;;;;;;14.10;99.90;;;;;;5033207;28;19936;-62
2023/04/22 07:51:42;;;;;;;;;;;14.30;99.90;;;;;;5038221;28;20346;-61
2023/04/22 07:54:08;;;;;;;;;;;14.40;99.90;;;;;;5037166;28;19950;-62
2023/04/22 07:56:33;;;;;;;;;;;14.50;99.90;;;;;;5036751;28;20387;-61
2023/04/22 07:58:59;;;;;;;;;;;14.60;99.90;;;;;;5037961;28;19970;-62
2023/04/22 08:01:24;;;;;;;;;;;14.70;99.90;;;;;;5035727;28;19913;-62
2023/04/22 08:03:49;;;;;;;;;;;14.90;99.90;;;;;;5038698;28;19925;-62
2023/04/22 08:06:15;;;;;;;;;;;15.00;99.90;;;;;;5040835;28;19996;-64
2023/04/22 08:08:40;;;;;;;;;;;15.20;99.90;;;;;;5028501;28;19968;-57
2023/04/22 08:11:06;;;;;;;;;;;15.30;99.90;;;;;;5037503;28;19913;-56
2023/04/22 08:13:31;;;;;;;;;;;15.50;99.90;;;;;;5043209;28;19925;-56
2023/04/22 08:15:57;;;;;;;;;;;15.50;99.90;;;;;;5037322;28;19912;-54
2023/04/22 08:18:22;;;;;;;;;;;15.60;99.90;;;;;;5043200;28;19931;-57
2023/04/22 08:20:49;;;;;;;;;;;15.70;99.90;;;;;;5041038;28;19917;-55
2023/04/22 08:23:14;;;;;;;;;;;15.80;99.90;;;;;;5036574;28;20330;-56
2023/04/22 08:25:39;;;;;;;;;;;16.00;99.90;;;;;;5035129;28;20322;-57
2023/04/22 08:28:05;;;;;;;;;;;16.20;99.90;;;;;;5029478;28;20436;-56
2023/04/22 08:30:30;;;;;;;;;;;16.40;99.90;;;;;;5037797;28;20367;-57
2023/04/22 08:32:56;;;;;;;;;;;16.50;99.90;;;;;;5034625;28;19913;-57
2023/04/22 08:35:21;;;;;;;;;;;16.70;99.90;;;;;;5037992;28;19940;-55
2023/04/22 08:37:47;;;;;;;;;;;16.70;99.90;;;;;;5033833;28;19921;-54
2023/04/22 08:40:12;;;;;;;;;;;16.70;99.90;;;;;;5036713;28;20012;-54
2023/04/22 08:42:38;;;;;;;;;;;16.80;99.90;;;;;;5030044;28;19921;-56
2023/04/22 08:45:04;;;;;;;;;;;16.80;99.90;;;;;;5032021;28;19960;-59
2023/04/22 08:47:31;;;;;;;;;;;16.90;99.90;;;;;;5032029;28;19960;-59
2023/04/22 08:49:57;;;;;;;;;;;17.00;99.90;;;;;;5031900;28;20371;-56
2023/04/22 08:52:23;;;;;;;;;;;17.00;99.90;;;;;;5027684;28;19913;-55
2023/04/22 08:54:48;;;;;;;;;;;17.10;99.90;;;;;;5035149;28;19956;-55
2023/04/22 08:57:15;;;;;;;;;;;17.30;99.90;;;;;;5034990;28;20379;-54
2023/04/22 08:59:40;;;;;;;;;;;17.60;99.90;;;;;;5040868;28;19916;-54
2023/04/22 09:02:09;;;;;;;;;;;17.80;99.90;;;;;;5030658;28;19978;-56
2023/04/22 09:04:35;;;;;;;;;;;17.90;99.90;;;;;;5036810;28;19917;-56
2023/04/22 09:07:01;;;;;;;;;;;17.90;99.90;;;;;;5036635;28;20279;-54
2023/04/22 09:09:27;;;;;;;;;;;18.00;99.90;;;;;;5033949;28;19916;-57
2023/04/22 09:11:52;;;;;;;;;;;18.10;99.90;;;;;;5029984;28;20004;-56
2023/04/22 09:14:18;;;;;;;;;;;18.20;99.90;;;;;;5035927;28;20388;-58
2023/04/22 09:16:47;;;;;;;;;;;18.40;99.90;;;;;;5035097;28;19914;-55
2023/04/22 09:19:13;;;;;;;;;;;18.50;99.90;;;;;;5039469;28;19917;-57
2023/04/22 09:21:40;;;;;;;;;;;18.70;99.90;;;;;;5036224;28;19913;-58
2023/04/22 09:24:09;;;;;;;;;;;18.80;99.90;;;;;;5033755;28;19982;-56
2023/04/22 09:26:38;;;;;;;;;;;19.00;99.90;;;;;;5037788;28;19960;-56
2023/04/22 09:29:08;;;;;;;;;;;19.00;99.90;;;;;;5034443;28;19913;-57
2023/04/22 09:31:34;;;;;;;;;;;19.00;99.90;;;;;;5032406;28;19924;-54
2023/04/22 09:34:00;;;;;;;;;;;19.00;99.90;;;;;;5035418;28;19917;-56
2023/04/22 09:36:26;;;;;;;;;;;19.10;99.90;;;;;;5033842;28;19913;-57
2023/04/22 09:38:56;;;;;;;;;;;19.20;99.90;;;;;;5029095;28;19921;-56
2023/04/22 09:41:29;;;;;;;;;;;19.20;99.90;;;;;;5035586;28;19916;-58
2023/04/22 09:43:55;;;;;;;;;;;19.40;99.90;;;;;;5034470;28;20020;-56
2023/04/22 09:46:22;;;;;;;;;;;19.50;99.90;;;;;;5035092;28;19921;-56
2023/04/22 09:48:48;;;;;;;;;;;19.70;99.90;;;;;;5037641;28;20398;-57
2023/04/22 09:51:15;;;;;;;;;;;19.90;99.90;;;;;;5034867;28;19916;-55
2023/04/22 09:53:41;;;;;;;;;;;20.10;99.90;;;;;;5036537;28;20366;-57
2023/04/22 09:56:06;;;;;;;;;;;20.20;99.90;;;;;;5032547;28;19974;-56
2023/04/22 09:58:37;;;;;;;;;;;20.30;99.90;;;;;;5034763;28;20309;-52
2023/04/22 10:01:02;;;;;;;;;;;20.50;99.90;;;;;;5035045;28;19920;-57
2023/04/22 10:03:28;;;;;;;;;;;20.80;99.90;;;;;;5035796;28;19925;-55
2023/04/22 10:05:53;;;;;;;;;;;20.80;99.90;;;;;;5031653;28;20407;-55
2023/04/22 10:08:19;;;;;;;;;;;20.80;99.90;;;;;;5030565;28;20363;-55
2023/04/22 10:10:44;;;;;;;;;;;20.50;99.90;;;;;;5039838;28;20050;-56
2023/04/22 10:13:10;;;;;;;;;;;20.40;99.90;;;;;;5036801;28;19912;-57
2023/04/22 10:15:38;;;;;;;;;;;20.30;99.90;;;;;;5038901;28;19988;-57
2023/04/22 10:18:05;;;;;;;;;;;20.30;99.90;;;;;;5039786;28;19920;-59
2023/04/22 10:20:30;;;;;;;;;;;20.40;99.90;;;;;;5036693;28;19921;-54
2023/04/22 10:22:56;;;;;;;;;;;20.80;99.90;;;;;;5037494;28;20035;-55
2023/04/22 10:25:25;;;;;;;;;;;20.90;99.90;;;;;;5028324;28;19967;-57
2023/04/22 10:28:01;;;;;;;;;;;21.40;99.90;;;;;;5028400;28;20383;-54
2023/04/22 10:30:27;;;;;;;;;;;21.70;99.90;;;;;;5031966;28;19914;-51
2023/04/22 10:32:53;;;;;;;;;;;22.00;99.90;;;;;;5035632;28;19917;-50
2023/04/22 10:35:25;;;;;;;;;;;22.10;99.90;;;;;;5043516;28;19920;-53
2023/04/22 10:37:51;;;;;;;;;;;22.10;99.90;;;;;;5043769;28;19954;-56
2023/04/22 10:40:17;;;;;;;;;;;22.10;99.90;;;;;;5042476;28;19921;-55
2023/04/22 10:42:48;;;;;;;;;;;22.30;99.90;;;;;;5043366;28;19940;-57
2023/04/22 10:45:14;;;;;;;;;;;21.80;98.60;;;;;;5040544;28;19916;-56
2023/04/22 10:47:40;;;;;;;;;;;21.30;99.10;;;;;;5037030;28;19917;-60
2023/04/22 10:50:10;;;;;;;;;;;21.20;99.90;;;;;;5036771;28;20291;-56
2023/04/22 10:52:36;;;;;;;;;;;21.50;99.70;;;;;;5040313;28;19959;-56
2023/04/22 10:55:01;;;;;;;;;;;21.70;99.90;;;;;;5035313;28;19976;-58
2023/04/22 10:57:32;;;;;;;;;;;22.00;99.00;;;;;;5039070;28;20290;-56
2023/04/22 10:59:59;;;;;;;;;;;22.10;98.40;;;;;;5042839;28;19913;-59
2023/04/22 11:02:25;;;;;;;;;;;21.90;98.30;;;;;;5032652;28;20387;-57
2023/04/22 11:04:53;;;;;;;;;;;22.20;99.90;;;;;;5041320;28;19924;-57
2023/04/22 11:07:25;;;;;;;;;;;22.20;99.90;;;;;;5035546;28;19913;-54
2023/04/22 11:09:52;;;;;;;;;;;22.10;99.50;;;;;;5041258;28;19920;-56
2023/04/22 11:12:38;;;;;;;;;;;21.60;99.90;;;;;;5040799;28;19913;-53
2023/04/22 11:15:07;;;;;;;;;;;21.50;99.90;;;;;;5043878;28;20432;-55
2023/04/22 11:17:33;;;;;;;;;;;21.80;99.90;;;;;;5043277;28;19913;-54
2023/04/22 11:19:59;;;;;;;;;;;22.20;99.90;;;;;;5050507;28;19913;-55
2023/04/22 11:22:25;;;;;;;;;;;22.40;99.90;;;;;;5041972;28;20468;-57
2023/04/22 11:24:57;;;;;;;;;;;22.30;99.90;;;;;;5047148;28;19916;-53
2023/04/22 11:27:26;;;;;;;;;;;22.40;99.90;;;;;;5043088;28;20046;-58
2023/04/22 11:30:02;;;;;;;;;;;22.50;99.90;;;;;;5037165;28;20397;-54
2023/04/22 11:32:27;;;;;;;;;;;22.60;99.90;;;;;;5034060;28;19916;-56
2023/04/22 11:34:53;;;;;;;;;;;22.80;99.90;;;;;;5036431;28;19923;-56
2023/04/22 11:37:19;;;;;;;;;;;22.50;99.60;;;;;;5039785;28;20387;-53
2023/04/22 11:39:44;;;;;;;;;;;22.70;98.60;;;;;;5037948;28;20291;-54
2023/04/22 11:42:13;;;;;;;;;;;22.50;99.90;;;;;;5040509;28;19958;-58
2023/04/22 11:44:38;;;;;;;;;;;22.40;99.90;;;;;;5031721;28;19979;-54
2023/04/22 11:47:04;;;;;;;;;;;22.30;99.90;;;;;;5033117;28;19941;-57
2023/04/22 11:49:31;;;;;;;;;;;22.20;99.90;;;;;;5035383;28;20497;-53
2023/04/22 11:51:57;;;;;;;;;;;22.00;99.90;;;;;;5038190;28;19913;-54
2023/04/22 11:54:32;;;;;;;;;;;21.80;99.90;;;;;;5039162;28;19936;-53
2023/04/22 11:57:05;;;;;;;;;;;21.70;99.90;;;;;;5035636;28;19913;-56
2023/04/22 11:59:30;;;;;;;;;;;21.70;99.90;;;;;;5035457;28;19921;-58
2023/04/22 12:01:56;;;;;;;;;;;21.70;99.90;;;;;;5031743;28;20457;-54
2023/04/22 12:04:22;;;;;;;;;;;21.90;99.90;;;;;;5031412;28;20020;-52
2023/04/22 12:06:48;;;;;;;;;;;22.30;99.90;;;;;;5039090;28;19913;-58
2023/04/22 12:09:13;;;;;;;;;;;22.60;99.90;;;;;;5032662;28;20042;-55
2023/04/22 12:11:39;;;;;;;;;;;22.40;99.90;;;;;;5036703;28;20011;-53
2023/04/22 12:14:05;;;;;;;;;;;22.50;99.90;;;;;;5031282;28;20371;-56
2023/04/22 12:16:38;;;;;;;;;;;22.40;99.90;;;;;;5037579;28;19917;-54
2023/04/22 12:19:03;;;;;;;;;;;22.40;99.90;;;;;;5043172;28;19928;-57
2023/04/22 12:21:30;;;;;;;;;;;22.20;99.90;;;;;;5039925;28;19921;-52
2023/04/22 12:23:58;;;;;;;;;;;21.90;99.90;;;;;;5037566;28;19909;-56
2023/04/22 12:26:25;;;;;;;;;;;21.70;99.90;;;;;;5042610;28;20345;-52
2023/04/22 12:28:51;;;;;;;;;;;21.60;99.90;;;;;;5037793;28;19913;-57
2023/04/22 12:31:17;;;;;;;;;;;21.40;99.90;;;;;;5037312;28;19919;-54
2023/04/22 12:33:43;;;;;;;;;;;21.60;99.90;;;;;;5038515;28;19959;-59
2023/04/22 12:36:09;;;;;;;;;;;21.50;99.90;;;;;;5042818;28;20075;-59
2023/04/22 12:38:35;;;;;;;;;;;21.60;99.90;;;;;;5041932;28;20579;-57
2023/04/22 12:41:00;;;;;;;;;;;21.60;99.90;;;;;;5033835;28;19917;-55
2023/04/22 12:43:26;;;;;;;;;;;21.70;99.90;;;;;;5044274;28;19913;-54
2023/04/22 12:45:51;;;;;;;;;;;21.70;99.90;;;;;;5035989;28;19925;-56
2023/04/22 12:48:17;;;;;;;;;;;21.70;99.90;;;;;;5039388;28;19912;-54
2023/04/22 12:50:42;;;;;;;;;;;21.50;99.90;;;;;;5039593;28;19920;-53
2023/04/22 12:53:08;;;;;;;;;;;21.50;99.90;;;;;;5038568;28;19923;-55
2023/04/22 12:55:34;;;;;;;;;;;21.60;99.90;;;;;;5037147;28;20012;-54
2023/04/22 12:57:59;;;;;;;;;;;21.50;99.90;;;;;;5042198;28;19912;-53
2023/04/22 13:00:25;;;;;;;;;;;21.60;99.90;;;;;;5045930;28;20402;-54
2023/04/22 13:02:50;;;;;;;;;;;21.40;99.90;;;;;;5040187;28;19928;-58
2023/04/22 13:05:17;;;;;;;;;;;21.30;99.90;;;;;;5035810;28;19921;-51
2023/04/22 13:07:42;;;;;;;;;;;21.40;99.90;;;;;;5037231;28;19913;-56
2023/04/22 13:10:09;;;;;;;;;;;21.40;99.90;;;;;;5041771;28;19920;-54
2023/04/22 13:12:34;;;;;;;;;;;21.20;99.90;;;;;;5043455;28;20056;-55
2023/04/22 13:15:00;;;;;;;;;;;20.90;99.90;;;;;;5035900;28;20531;-54
2023/04/22 13:17:25;;;;;;;;;;;20.70;99.90;;;;;;5035186;28;19912;-57
2023/04/22 13:19:51;;;;;;;;;;;20.60;99.90;;;;;;5029385;28;19921;-57
2023/04/22 13:22:17;;;;;;;;;;;20.50;99.90;;;;;;5039767;28;19921;-54
2023/04/22 13:24:42;;;;;;;;;;;20.50;99.90;;;;;;5034777;28;20394;-53
2023/04/22 13:27:08;;;;;;;;;;;20.40;99.90;;;;;;5030526;28;19917;-55
2023/04/22 13:29:33;;;;;;;;;;;20.30;99.90;;;;;;5031127;28;20386;-53
2023/04/22 13:31:59;;;;;;;;;;;20.10;99.90;;;;;;5027839;28;19917;-54
2023/04/22 13:34:24;;;;;;;;;;;19.90;99.90;;;;;;5038476;28;19960;-52
2023/04/22 13:36:50;;;;;;;;;;;19.80;99.90;;;;;;5035952;28;19963;-56
2023/04/22 13:39:16;;;;;;;;;;;19.70;99.90;;;;;;5032684;28;19917;-58
2023/04/22 13:41:42;;;;;;;;;;;19.60;99.90;;;;;;5037954;28;20491;-56
2023/04/22 13:44:09;;;;;;;;;;;19.50;99.90;;;;;;5030941;28;20011;-55
2023/04/22 13:46:35;;;;;;;;;;;19.50;99.90;;;;;;5031333;28;19914;-56
2023/04/22 13:49:00;;;;;;;;;;;19.40;99.90;;;;;;5037353;28;19925;-56
2023/04/22 13:51:25;;;;;;;;;;;19.40;99.90;;;;;;5041709;28;19913;-54
2023/04/22 13:53:51;;;;;;;;;;;19.30;99.90;;;;;;5029710;28;19928;-55
2023/04/22 13:56:16;;;;;;;;;;;19.30;99.90;;;;;;5036072;28;19913;-56
2023/04/22 13:58:42;;;;;;;;;;;19.30;99.90;;;;;;5037232;28;19924;-55
2023/04/22 14:01:07;;;;;;;;;;;19.20;99.90;;;;;;5030713;28;19921;-56
2023/04/22 14:03:33;;;;;;;;;;;19.20;99.90;;;;;;5037390;28;19979;-56
2023/04/22 14:05:59;;;;;;;;;;;19.20;99.90;;;;;;5039435;28;20641;-57
2023/04/22 14:08:25;;;;;;;;;;;19.20;99.90;;;;;;5030243;28;19979;-56
2023/04/22 14:10:51;;;;;;;;;;;19.20;99.90;;;;;;5037896;28;20391;-56
2023/04/22 14:13:16;;;;;;;;;;;19.20;99.90;;;;;;5039290;28;20408;-55